Airfield :







YOU CAN JOIN US ON...

 
LOGIN :

Register | Disclaimer

   EN    FR    IT 

 









Legend :    VFR   Marginal VFR   IFR   Intensive IFR   Very Intensive IFR
Visi :
Ceiling :
>= 8 km
>= 3000ft
5 to 8 km
1000 to 3000 ft
1500m to 5 km
500 to 1000 ft
800 to 1500m
200 to 500 ft
< 800m
< 200 ft
Symbols :   Thunderstorms  Fog  Heavy snow  Heavy precipitations  Wind > 20 kt






- Airport Elevation : 39 ft
- IATA code : YNA


CYNA - Natashquan

CURRENT METAR :
  • 180600Z AUTO 01004KT 9SM CLR M19/M26 A3029 RMK SLP260

EXPIRED METARs :
  • 180500Z AUTO 01004KT 330V070 9SM CLR M18/M25 A3026 RMK SLP248
  • 180400Z AUTO 34007KT 9SM CLR M17/M24 A3023 RMK SLP238

TAF TAF CYNA
Valid from the 18 at 02:00 until the 18 at 14:00 UTC


180138Z 1802/1814 34010G20KT P6SM SKC
BECMG 1802/1804 32005KT RMK FCST BASED ON AUTO OBS. NXT FCST BY 180800Z



MET'MAP, your aeronautical weather chart ! - Copyright ORBIFLY December 2007 - Disclaimer

ORBIFLY MET'MAP TEAM :

Programming & Development : Alexandra Zaïnal
Concept & original design : Baudouin d'Aumeries
Assistance for programming : Marc-Olivier Méhu
Technical & hardware support : Manuel Goepfert

Contact : metmap@orbifly.com




SOURCES & CREDITS :

   NOAA